Time;durP1;ratioP1;P1;durP2;ratioP2;P2;SDS_P1;SDS_P2;PMS_P1;PMS_P2;Temp;Humidity;BMP_temperature;BMP_pressure;BME280_temperature;BME280_humidity;BME280_pressure;Samples;Min_cycle;Max_cycle;Signal;HPM_P1;HPM_P2
2022/08/28 00:00:16;;;;;;;6.50;4.55;;;;;;;;;;6287158;28;20041;-80
2022/08/28 00:03:17;;;;;;;7.57;4.78;;;;;;;;;;6273644;28;20043;-76
2022/08/28 00:06:19;;;;;;;7.32;4.88;;;;;;;;;;6278177;28;20049;-79
2022/08/28 00:09:21;;;;;;;7.03;4.75;;;;;;;;;;6265706;28;20195;-78
2022/08/28 00:12:23;;;;;;;6.22;4.60;;;;;;;;;;6289081;28;20053;-78
2022/08/28 00:15:29;;;;;;;5.50;4.72;;;;;;;;;;6282075;28;20546;-80
2022/08/28 00:18:31;;;;;;;7.32;4.78;;;;;;;;;;6280684;28;20044;-78
2022/08/28 00:21:32;;;;;;;8.13;5.18;;;;;;;;;;6276113;28;20139;-79
2022/08/28 00:24:35;;;;;;;7.47;4.65;;;;;;;;;;6278678;28;20090;-78
2022/08/28 00:27:52;;;;;;;5.90;4.70;;;;;;;;;;6259283;28;20495;-77
2022/08/28 00:30:57;;;;;;;8.02;4.60;;;;;;;;;;6280666;28;20063;-78
2022/08/28 00:34:02;;;;;;;8.10;4.95;;;;;;;;;;6274311;28;20346;-78
2022/08/28 00:37:04;;;;;;;6.43;4.63;;;;;;;;;;6277385;28;20040;-77
2022/08/28 00:40:07;;;;;;;8.65;5.00;;;;;;;;;;6283800;27;20056;-77
2022/08/28 00:43:20;;;;;;;7.18;4.63;;;;;;;;;;6282850;28;20044;-78
2022/08/28 00:46:22;;;;;;;10.43;5.25;;;;;;;;;;6280007;28;20430;-80
2022/08/28 00:49:36;;;;;;;8.52;5.53;;;;;;;;;;6292289;28;20055;-78
2022/08/28 00:52:39;;;;;;;6.22;5.25;;;;;;;;;;6279957;27;20048;-79
2022/08/28 00:55:41;;;;;;;5.57;4.95;;;;;;;;;;6279657;28;20068;-77
2022/08/28 00:58:44;;;;;;;;;;;;;;;;;;6284464;28;20047;-77
2022/08/28 01:01:48;;;;;;;6.53;5.03;;;;;;;;;;6274537;28;20203;-81
2022/08/28 01:04:50;;;;;;;9.50;5.93;;;;;;;;;;6281826;28;20040;-77
2022/08/28 01:07:52;;;;;;;8.25;5.47;;;;;;;;;;6278080;28;20525;-80
2022/08/28 01:10:56;;;;;;;7.68;5.88;;;;;;;;;;6283068;28;20087;-78
2022/08/28 01:14:01;;;;;;;7.93;5.63;;;;;;;;;;6282566;28;20040;-77
2022/08/28 01:17:05;;;;;;;8.88;5.32;;;;;;;;;;6278128;28;20174;-79
2022/08/28 01:20:15;;;;;;;6.60;4.82;;;;;;;;;;6287286;28;20465;-80
2022/08/28 01:23:42;;;;;;;6.80;4.65;;;;;;;;;;6287188;28;20235;-79
2022/08/28 01:26:44;;;;;;;6.28;4.72;;;;;;;;;;6258245;28;20061;-77
2022/08/28 01:29:46;;;;;;;7.72;5.32;;;;;;;;;;6285517;28;20075;-78
2022/08/28 01:32:53;;;;;;;7.15;5.28;;;;;;;;;;6279417;28;20045;-78
2022/08/28 01:35:56;;;;;;;6.53;4.82;;;;;;;;;;6276721;28;20047;-79
2022/08/28 01:39:04;;;;;;;7.45;4.50;;;;;;;;;;6279561;28;20162;-80
2022/08/28 01:42:05;;;;;;;5.88;4.78;;;;;;;;;;6281860;28;20872;-80
2022/08/28 01:45:10;;;;;;;5.13;4.38;;;;;;;;;;6278448;28;20441;-76
2022/08/28 01:48:15;;;;;;;7.05;4.97;;;;;;;;;;6285113;28;20056;-80
2022/08/28 01:51:16;;;;;;;6.22;4.68;;;;;;;;;;6274746;28;20096;-79
2022/08/28 01:54:25;;;;;;;5.60;4.68;;;;;;;;;;6275975;28;20056;-79
2022/08/28 01:57:27;;;;;;;7.43;4.80;;;;;;;;;;6284669;28;20044;-81
2022/08/28 02:00:29;;;;;;;5.78;4.43;;;;;;;;;;6281651;28;20049;-77
2022/08/28 02:03:32;;;;;;;7.00;4.60;;;;;;;;;;6285392;28;20068;-79
2022/08/28 02:06:34;;;;;;;8.18;4.70;;;;;;;;;;6273818;28;20040;-79
2022/08/28 02:09:35;;;;;;;5.40;4.53;;;;;;;;;;6270372;28;20407;-78
2022/08/28 02:12:37;;;;;;;6.18;5.15;;;;;;;;;;6284218;28;20053;-78
2022/08/28 02:15:40;;;;;;;7.78;5.07;;;;;;;;;;6279172;28;20048;-80
2022/08/28 02:18:42;;;;;;;7.30;4.82;;;;;;;;;;6280043;28;20098;-80
2022/08/28 02:21:44;;;;;;;6.43;4.82;;;;;;;;;;6278309;28;20908;-77
2022/08/28 02:24:45;;;;;;;6.85;4.95;;;;;;;;;;6276932;28;20052;-80
2022/08/28 02:27:48;;;;;;;6.45;5.20;;;;;;;;;;6261128;28;20523;-79
2022/08/28 02:30:49;;;;;;;6.90;4.80;;;;;;;;;;6285158;28;20068;-80
2022/08/28 02:33:51;;;;;;;6.45;5.32;;;;;;;;;;6282388;28;20056;-80
2022/08/28 02:36:55;;;;;;;5.93;5.18;;;;;;;;;;6281756;28;20098;-77
2022/08/28 02:39:57;;;;;;;5.22;4.72;;;;;;;;;;6279304;28;20060;-80
2022/08/28 02:42:59;;;;;;;8.00;4.40;;;;;;;;;;6285727;28;20086;-80
2022/08/28 02:46:01;;;;;;;6.25;4.72;;;;;;;;;;6284135;28;20040;-80
2022/08/28 02:49:03;;;;;;;6.85;4.93;;;;;;;;;;6286157;28;20521;-80
2022/08/28 02:52:05;;;;;;;6.78;4.53;;;;;;;;;;6268297;28;20040;-79
2022/08/28 02:55:09;;;;;;;5.53;4.45;;;;;;;;;;6277519;28;20418;-78
2022/08/28 02:58:11;;;;;;;6.22;4.05;;;;;;;;;;6282627;28;20052;-79
2022/08/28 03:01:13;;;;;;;6.35;4.15;;;;;;;;;;6280514;28;20033;-79
2022/08/28 03:04:16;;;;;;;7.65;4.15;;;;;;;;;;6277717;28;20041;-80
2022/08/28 03:07:18;;;;;;;8.00;4.30;;;;;;;;;;6278898;28;20110;-80
2022/08/28 03:10:20;;;;;;;9.53;3.87;;;;;;;;;;6271831;28;20037;-79
2022/08/28 03:13:22;;;;;;;5.50;4.03;;;;;;;;;;6290462;28;20076;-80
2022/08/28 03:16:28;;;;;;;5.65;4.32;;;;;;;;;;6281083;28;20514;-77
2022/08/28 03:19:29;;;;;;;8.27;3.90;;;;;;;;;;6272892;28;20049;-76
2022/08/28 03:25:54;;;;;;;6.28;4.07;;;;;;;;;;6272061;28;20468;-78
2022/08/28 03:28:56;;;;;;;5.30;4.10;;;;;;;;;;6282817;28;20082;-80
2022/08/28 03:32:00;;;;;;;8.05;4.15;;;;;;;;;;6289412;28;20056;-78
2022/08/28 03:35:04;;;;;;;5.95;3.78;;;;;;;;;;6284820;28;20040;-77
2022/08/28 03:38:06;;;;;;;5.85;3.50;;;;;;;;;;6286600;28;20045;-78
2022/08/28 03:41:12;;;;;;;4.88;3.80;;;;;;;;;;6281971;28;20044;-77
2022/08/28 03:44:14;;;;;;;5.00;3.83;;;;;;;;;;6286642;28;20411;-78
2022/08/28 03:47:16;;;;;;;6.68;4.30;;;;;;;;;;6285859;28;20040;-79
2022/08/28 03:50:18;;;;;;;5.45;3.85;;;;;;;;;;6279951;28;20112;-79
2022/08/28 03:53:21;;;;;;;5.80;4.82;;;;;;;;;;6289512;28;20486;-79
2022/08/28 03:56:25;;;;;;;5.65;4.43;;;;;;;;;;6284008;28;20579;-78
2022/08/28 03:59:27;;;;;;;6.18;3.97;;;;;;;;;;6277300;28;20099;-77
2022/08/28 04:02:34;;;;;;;7.15;4.00;;;;;;;;;;6278902;28;20049;-75
2022/08/28 04:05:36;;;;;;;4.35;3.95;;;;;;;;;;6276591;28;20548;-77
2022/08/28 04:08:38;;;;;;;6.77;4.03;;;;;;;;;;6278920;28;20080;-76
2022/08/28 04:11:43;;;;;;;7.00;4.40;;;;;;;;;;6283774;28;20052;-77
2022/08/28 04:14:44;;;;;;;6.15;4.22;;;;;;;;;;6279121;28;20049;-77
2022/08/28 04:17:46;;;;;;;5.50;4.45;;;;;;;;;;6278105;28;20048;-76
2022/08/28 04:20:57;;;;;;;7.13;4.30;;;;;;;;;;6279704;28;20129;-77
2022/08/28 04:23:59;;;;;;;6.65;4.15;;;;;;;;;;6286000;28;20091;-77
2022/08/28 04:27:01;;;;;;;6.80;4.40;;;;;;;;;;6278885;28;20071;-77
2022/08/28 04:30:04;;;;;;;6.45;3.97;;;;;;;;;;6283716;28;20502;-77
2022/08/28 04:33:06;;;;;;;5.43;3.83;;;;;;;;;;6284480;28;20506;-77
2022/08/28 04:36:14;;;;;;;8.38;3.90;;;;;;;;;;6277913;28;20044;-76
2022/08/28 04:39:15;;;;;;;7.97;4.57;;;;;;;;;;6284373;28;20064;-77
2022/08/28 04:42:18;;;;;;;7.25;4.18;;;;;;;;;;6286237;28;20100;-77
2022/08/28 04:45:20;;;;;;;6.47;4.57;;;;;;;;;;6284349;28;20460;-77
2022/08/28 04:48:22;;;;;;;6.70;4.28;;;;;;;;;;6283172;28;20044;-76
2022/08/28 04:51:25;;;;;;;6.55;4.47;;;;;;;;;;6277788;28;20049;-78
2022/08/28 04:54:26;;;;;;;5.40;4.88;;;;;;;;;;6277988;28;20051;-76
2022/08/28 04:57:29;;;;;;;5.80;4.25;;;;;;;;;;6284238;28;20054;-78
2022/08/28 05:00:39;;;;;;;7.38;4.60;;;;;;;;;;6275186;28;20057;-77
2022/08/28 05:03:41;;;;;;;5.25;4.22;;;;;;;;;;6281092;28;20131;-78
2022/08/28 05:06:44;;;;;;;6.00;4.57;;;;;;;;;;6280139;28;20496;-76
2022/08/28 05:09:47;;;;;;;9.00;4.25;;;;;;;;;;6282535;28;20055;-77
2022/08/28 05:12:49;;;;;;;6.85;4.15;;;;;;;;;;6279452;28;20090;-77
2022/08/28 05:15:51;;;;;;;6.30;4.05;;;;;;;;;;6286409;28;20045;-75
2022/08/28 05:18:53;;;;;;;5.20;4.03;;;;;;;;;;6281262;28;20210;-78
2022/08/28 05:21:54;;;;;;;7.20;3.90;;;;;;;;;;6283208;28;20055;-78
2022/08/28 05:24:56;;;;;;;5.97;3.50;;;;;;;;;;6286322;28;20182;-76
2022/08/28 05:27:58;;;;;;;6.95;4.03;;;;;;;;;;6279180;28;20086;-77
2022/08/28 05:31:10;;;;;;;5.10;3.60;;;;;;;;;;6285417;28;20128;-76
2022/08/28 05:34:14;;;;;;;6.63;3.78;;;;;;;;;;6276004;28;20041;-77
2022/08/28 05:37:15;;;;;;;4.72;3.67;;;;;;;;;;6281227;28;20048;-77
2022/08/28 05:40:21;;;;;;;5.47;3.60;;;;;;;;;;6264333;28;20166;-77
2022/08/28 05:43:24;;;;;;;5.90;3.72;;;;;;;;;;6279565;28;20047;-77
2022/08/28 05:46:27;;;;;;;6.80;3.17;;;;;;;;;;6279102;28;20091;-77
2022/08/28 05:49:28;;;;;;;7.10;3.67;;;;;;;;;;6277631;28;20068;-76
2022/08/28 05:52:30;;;;;;;5.45;3.42;;;;;;;;;;6288468;28;20411;-77
2022/08/28 05:55:32;;;;;;;8.57;3.60;;;;;;;;;;6278337;28;20053;-77
2022/08/28 05:58:34;;;;;;;8.60;4.13;;;;;;;;;;6269035;28;20053;-75
2022/08/28 06:01:42;;;;;;;5.55;3.80;;;;;;;;;;6280763;28;20056;-76
2022/08/28 06:04:44;;;;;;;8.20;3.88;;;;;;;;;;6275138;28;20131;-75
2022/08/28 06:07:45;;;;;;;6.13;4.00;;;;;;;;;;6272869;28;20099;-77
2022/08/28 06:10:49;;;;;;;5.40;3.75;;;;;;;;;;6279017;28;20083;-76
2022/08/28 06:13:51;;;;;;;4.30;3.83;;;;;;;;;;6290738;28;20048;-78
2022/08/28 06:16:55;;;;;;;8.45;3.75;;;;;;;;;;6281965;28;20140;-78
2022/08/28 06:19:57;;;;;;;6.72;3.88;;;;;;;;;;6275631;28;20044;-78
2022/08/28 06:22:59;;;;;;;4.75;3.92;;;;;;;;;;6275568;28;20189;-78
2022/08/28 06:26:00;;;;;;;6.82;3.80;;;;;;;;;;6266517;28;20064;-77
2022/08/28 06:29:08;;;;;;;7.38;3.40;;;;;;;;;;6262957;28;20835;-77
2022/08/28 06:32:10;;;;;;;7.57;4.15;;;;;;;;;;6289750;28;20090;-78
2022/08/28 06:35:12;;;;;;;6.75;3.65;;;;;;;;;;6278662;28;20162;-78
2022/08/28 06:38:16;;;;;;;7.25;3.15;;;;;;;;;;6271546;28;20047;-77
2022/08/28 06:41:18;;;;;;;5.75;3.17;;;;;;;;;;6252085;28;20123;-78
2022/08/28 06:44:21;;;;;;;7.97;3.38;;;;;;;;;;6270548;28;20412;-77
2022/08/28 06:47:22;;;;;;;6.38;3.17;;;;;;;;;;6276358;28;20538;-78
2022/08/28 06:50:24;;;;;;;6.78;3.00;;;;;;;;;;6273642;28;20102;-77
2022/08/28 06:53:28;;;;;;;8.13;3.53;;;;;;;;;;6273189;28;20621;-79
2022/08/28 06:56:30;;;;;;;6.22;2.85;;;;;;;;;;6272773;27;20516;-78
2022/08/28 06:59:31;;;;;;;5.57;2.85;;;;;;;;;;6261628;28;20126;-79
2022/08/28 07:02:33;;;;;;;8.50;2.95;;;;;;;;;;6274104;28;20049;-77
2022/08/28 07:05:35;;;;;;;5.72;2.95;;;;;;;;;;6268915;28;20507;-77
2022/08/28 07:08:38;;;;;;;8.75;3.30;;;;;;;;;;6266122;28;20095;-77
2022/08/28 07:11:42;;;;;;;6.45;2.92;;;;;;;;;;6268062;28;20155;-76
2022/08/28 07:14:44;;;;;;;6.82;3.00;;;;;;;;;;6284513;28;20063;-76
2022/08/28 07:17:46;;;;;;;6.40;2.72;;;;;;;;;;6272087;28;20049;-76
2022/08/28 07:20:54;;;;;;;5.60;2.50;;;;;;;;;;6290504;28;20137;-76
2022/08/28 07:23:56;;;;;;;6.30;2.50;;;;;;;;;;6277895;28;20040;-77
2022/08/28 07:26:58;;;;;;;5.83;3.10;;;;;;;;;;6281770;27;20087;-77
2022/08/28 07:30:00;;;;;;;6.57;2.90;;;;;;;;;;6282373;28;20067;-78
2022/08/28 07:33:02;;;;;;;3.55;2.58;;;;;;;;;;6278481;28;20149;-78
2022/08/28 07:36:06;;;;;;;8.07;2.85;;;;;;;;;;6285859;28;20515;-77
2022/08/28 07:39:16;;;;;;;5.80;2.50;;;;;;;;;;6275300;28;20056;-78
2022/08/28 07:45:41;;;;;;;7.22;2.75;;;;;;;;;;6273264;28;20059;-75
2022/08/28 07:48:46;;;;;;;10.95;3.00;;;;;;;;;;6275158;28;20048;-77
2022/08/28 07:51:47;;;;;;;6.05;2.63;;;;;;;;;;6275232;28;20106;-76
2022/08/28 07:54:55;;;;;;;5.90;2.30;;;;;;;;;;6274254;28;20122;-75
2022/08/28 07:57:56;;;;;;;7.57;2.50;;;;;;;;;;6270161;28;20044;-77
2022/08/28 08:01:00;;;;;;;3.67;2.10;;;;;;;;;;6280152;28;20052;-77
2022/08/28 08:04:02;;;;;;;5.80;1.98;;;;;;;;;;6284738;28;20118;-75
2022/08/28 08:07:04;;;;;;;;;;;;;;;;;;6274821;28;20133;-77
2022/08/28 08:10:13;;;;;;;5.45;2.13;;;;;;;;;;6277029;28;19958;-77
2022/08/28 08:13:20;;;;;;;4.85;2.03;;;;;;;;;;6278836;28;20045;-76
2022/08/28 08:16:24;;;;;;;6.13;2.17;;;;;;;;;;6273103;28;20158;-77
2022/08/28 08:19:26;;;;;;;3.85;2.10;;;;;;;;;;6275944;28;20079;-76
2022/08/28 08:22:28;;;;;;;5.47;2.20;;;;;;;;;;6282464;28;20072;-77
2022/08/28 08:25:30;;;;;;;5.43;2.10;;;;;;;;;;6270431;28;20258;-77
2022/08/28 08:28:36;;;;;;;4.22;1.80;;;;;;;;;;6273646;28;20048;-77
2022/08/28 08:31:39;;;;;;;6.00;2.10;;;;;;;;;;6277730;28;20128;-77
2022/08/28 08:34:48;;;;;;;8.90;2.13;;;;;;;;;;6265153;28;20052;-77
2022/08/28 08:37:50;;;;;;;3.83;2.25;;;;;;;;;;6271340;28;20394;-77
2022/08/28 08:40:53;;;;;;;4.38;1.95;;;;;;;;;;6268398;28;20044;-77
2022/08/28 08:43:59;;;;;;;4.35;2.00;;;;;;;;;;6286694;28;20060;-77
2022/08/28 08:47:14;;;;;;;5.55;1.85;;;;;;;;;;6273348;28;20056;-77
2022/08/28 08:50:34;;;;;;;5.68;2.25;;;;;;;;;;6272551;28;20708;-78
2022/08/28 08:53:49;;;;;;;4.45;1.63;;;;;;;;;;6271713;28;20048;-77
2022/08/28 08:56:55;;;;;;;5.82;2.20;;;;;;;;;;6269945;28;20044;-77
2022/08/28 08:59:56;;;;;;;5.38;2.00;;;;;;;;;;6267532;28;20124;-77
2022/08/28 09:03:08;;;;;;;5.03;2.00;;;;;;;;;;6272838;28;20056;-75
2022/08/28 09:06:42;;;;;;;7.13;2.05;;;;;;;;;;6270965;28;20076;-77
2022/08/28 09:09:51;;;;;;;5.38;2.00;;;;;;;;;;6271044;28;20133;-78
2022/08/28 09:13:19;;;;;;;5.13;2.10;;;;;;;;;;6272424;28;20068;-78
2022/08/28 09:16:30;;;;;;;3.47;2.00;;;;;;;;;;6273656;28;20530;-78
2022/08/28 09:19:32;;;;;;;5.40;2.60;;;;;;;;;;6273885;28;20049;-77
2022/08/28 09:22:34;;;;;;;6.05;2.00;;;;;;;;;;6282977;28;20095;-77
2022/08/28 09:25:55;;;;;;;;;;;;;;;;;;6276079;28;20044;-77
2022/08/28 09:29:04;;;;;;;4.20;1.88;;;;;;;;;;6280299;28;19959;-77
2022/08/28 09:32:22;;;;;;;5.07;2.17;;;;;;;;;;6277737;28;20041;-74
2022/08/28 09:35:23;;;;;;;5.72;2.67;;;;;;;;;;6270655;28;20129;-74
2022/08/28 09:38:25;;;;;;;7.85;2.80;;;;;;;;;;6272662;28;20087;-76
2022/08/28 09:44:57;;;;;;;9.25;4.95;;;;;;;;;;6273213;28;20110;-75
2022/08/28 09:48:01;;;;;;;16.50;9.20;;;;;;;;;;6273322;28;20040;-75
2022/08/28 09:51:06;;;;;;;9.73;5.85;;;;;;;;;;6274928;28;20126;-75
2022/08/28 09:54:21;;;;;;;15.27;8.80;;;;;;;;;;6271126;28;20129;-76
2022/08/28 09:57:23;;;;;;;7.80;4.53;;;;;;;;;;6274897;28;20190;-76
2022/08/28 10:00:26;;;;;;;5.90;3.10;;;;;;;;;;6271362;28;20052;-75
2022/08/28 10:03:59;;;;;;;5.95;3.67;;;;;;;;;;6270526;28;20102;-76
2022/08/28 10:07:15;;;;;;;5.60;3.13;;;;;;;;;;6273217;28;20182;-76
2022/08/28 10:10:50;;;;;;;8.65;3.60;;;;;;;;;;6275786;28;20044;-77
2022/08/28 10:14:12;;;;;;;6.70;3.40;;;;;;;;;;6279658;27;20059;-76
2022/08/28 10:17:30;;;;;;;9.40;4.22;;;;;;;;;;6272654;28;20121;-77
2022/08/28 10:21:00;;;;;;;8.27;3.80;;;;;;;;;;6277459;28;20047;-77
2022/08/28 10:24:14;;;;;;;6.75;3.05;;;;;;;;;;6275255;28;20093;-76
2022/08/28 10:27:55;;;;;;;5.47;3.00;;;;;;;;;;6269169;28;20731;-77
2022/08/28 10:31:24;;;;;;;5.00;3.15;;;;;;;;;;6278150;28;20135;-76
2022/08/28 10:34:41;;;;;;;4.82;2.90;;;;;;;;;;6287070;28;20159;-76
2022/08/28 10:37:52;;;;;;;7.57;3.05;;;;;;;;;;6274730;28;20067;-77
2022/08/28 10:41:07;;;;;;;6.97;2.95;;;;;;;;;;6272443;28;20121;-77
2022/08/28 10:44:14;;;;;;;5.25;3.08;;;;;;;;;;6276594;28;20155;-77
2022/08/28 10:47:19;;;;;;;6.18;3.20;;;;;;;;;;6270885;28;20044;-78
2022/08/28 10:50:25;;;;;;;6.00;3.30;;;;;;;;;;6267554;28;20067;-77
2022/08/28 10:53:34;;;;;;;6.40;3.10;;;;;;;;;;6271150;28;20143;-78
2022/08/28 10:56:42;;;;;;;6.30;3.00;;;;;;;;;;6274418;28;20179;-77
2022/08/28 10:59:46;;;;;;;4.85;3.00;;;;;;;;;;6270488;28;20131;-76
2022/08/28 11:02:57;;;;;;;5.90;3.50;;;;;;;;;;6267419;28;20567;-76
2022/08/28 11:06:04;;;;;;;5.70;3.22;;;;;;;;;;6271113;28;20044;-76
2022/08/28 11:09:24;;;;;;;6.30;3.50;;;;;;;;;;6268568;28;20053;-77
2022/08/28 11:12:40;;;;;;;6.25;3.38;;;;;;;;;;6268673;28;20049;-76
2022/08/28 11:15:50;;;;;;;5.68;3.33;;;;;;;;;;6265895;28;20071;-76
2022/08/28 11:19:20;;;;;;;5.90;3.45;;;;;;;;;;6272502;28;20131;-76
2022/08/28 11:22:47;;;;;;;6.20;3.20;;;;;;;;;;6275085;28;20103;-76
2022/08/28 11:25:53;;;;;;;6.65;3.40;;;;;;;;;;6270185;28;20078;-76
2022/08/28 11:28:56;;;;;;;5.45;3.22;;;;;;;;;;6271802;28;20032;-76
2022/08/28 11:32:29;;;;;;;6.03;3.78;;;;;;;;;;6271358;28;20076;-77
2022/08/28 11:35:50;;;;;;;5.22;3.13;;;;;;;;;;6283973;28;20075;-77
2022/08/28 11:38:55;;;;;;;7.97;3.60;;;;;;;;;;6268252;28;20130;-76
2022/08/28 11:42:09;;;;;;;6.10;3.35;;;;;;;;;;6266186;28;20044;-77
2022/08/28 11:45:37;;;;;;;6.18;3.70;;;;;;;;;;6273762;28;20049;-77
2022/08/28 11:48:47;;;;;;;7.32;3.40;;;;;;;;;;6271704;28;20550;-77
2022/08/28 11:52:01;;;;;;;6.22;3.58;;;;;;;;;;6270663;28;20155;-77
2022/08/28 11:55:44;;;;;;;7.80;3.15;;;;;;;;;;6271597;28;20117;-77
2022/08/28 11:58:56;;;;;;;6.85;3.40;;;;;;;;;;6268865;28;20147;-78
2022/08/28 12:02:35;;;;;;;5.25;3.30;;;;;;;;;;6269539;28;20052;-78
2022/08/28 12:05:41;;;;;;;4.85;3.03;;;;;;;;;;6267195;28;20040;-78
2022/08/28 12:08:57;;;;;;;4.63;3.00;;;;;;;;;;6266682;28;20053;-77
2022/08/28 12:12:08;;;;;;;4.88;3.28;;;;;;;;;;6267913;28;20137;-78
2022/08/28 12:15:29;;;;;;;4.20;2.67;;;;;;;;;;6273538;28;20499;-78
2022/08/28 12:18:37;;;;;;;5.18;2.78;;;;;;;;;;6267538;28;20542;-78
2022/08/28 12:21:41;;;;;;;5.55;3.22;;;;;;;;;;6272143;28;20744;-77
2022/08/28 12:24:46;;;;;;;7.10;2.97;;;;;;;;;;6270973;28;20041;-77
2022/08/28 12:27:48;;;;;;;4.53;2.85;;;;;;;;;;6267245;28;20045;-76
2022/08/28 12:35:15;;;;;;;5.60;3.13;;;;;;;;;;6266796;28;20564;-76
2022/08/28 12:38:20;;;;;;;4.25;2.58;;;;;;;;;;6265889;28;20044;-76
2022/08/28 12:41:25;;;;;;;5.03;2.80;;;;;;;;;;6271145;28;20138;-75
2022/08/28 12:44:30;;;;;;;5.13;2.97;;;;;;;;;;6266996;28;20128;-76
2022/08/28 12:47:34;;;;;;;4.82;3.00;;;;;;;;;;6286268;28;20119;-77
2022/08/28 12:50:38;;;;;;;5.40;2.58;;;;;;;;;;6275155;28;20049;-76
2022/08/28 12:53:45;;;;;;;3.92;2.30;;;;;;;;;;6280483;28;20866;-75
2022/08/28 12:56:47;;;;;;;5.75;2.47;;;;;;;;;;6275788;28;20033;-77
2022/08/28 12:59:54;;;;;;;4.93;2.45;;;;;;;;;;6262260;28;20055;-75
2022/08/28 13:02:56;;;;;;;4.35;2.60;;;;;;;;;;6269630;28;20119;-75
2022/08/28 13:06:06;;;;;;;4.88;2.80;;;;;;;;;;6277866;28;20045;-76
2022/08/28 13:09:22;;;;;;;4.68;2.72;;;;;;;;;;6272014;28;20037;-76
2022/08/28 13:12:29;;;;;;;3.83;2.40;;;;;;;;;;6273383;28;20502;-77
2022/08/28 13:15:53;;;;;;;5.30;2.47;;;;;;;;;;6251090;27;20044;-76
2022/08/28 13:19:05;;;;;;;4.10;2.35;;;;;;;;;;6272724;28;20040;-77
2022/08/28 13:22:33;;;;;;;3.80;1.80;;;;;;;;;;6281862;28;20052;-77
2022/08/28 13:25:36;;;;;;;6.60;2.17;;;;;;;;;;6267198;28;20068;-76
2022/08/28 13:28:41;;;;;;;5.72;2.97;;;;;;;;;;6274583;28;20087;-75
2022/08/28 13:31:43;;;;;;;5.35;2.90;;;;;;;;;;6277560;28;20049;-76
2022/08/28 13:35:09;;;;;;;5.93;2.17;;;;;;;;;;6285772;28;20182;-76
2022/08/28 13:38:13;;;;;;;4.13;2.60;;;;;;;;;;6271599;28;20080;-76
2022/08/28 13:41:14;;;;;;;5.72;2.22;;;;;;;;;;6275986;28;20143;-75
2022/08/28 13:44:45;;;;;;;5.22;2.85;;;;;;;;;;6276330;28;20128;-76
2022/08/28 13:47:46;;;;;;;6.95;2.90;;;;;;;;;;6276799;28;20055;-74
2022/08/28 13:50:52;;;;;;;4.93;2.38;;;;;;;;;;6276019;28;20506;-76
2022/08/28 13:53:54;;;;;;;6.05;2.33;;;;;;;;;;6279302;28;20071;-76
2022/08/28 13:56:57;;;;;;;5.43;2.28;;;;;;;;;;6276813;28;20041;-75
2022/08/28 13:59:59;;;;;;;5.00;2.20;;;;;;;;;;6270767;28;20095;-75
2022/08/28 14:06:22;;;;;;;6.03;3.28;;;;;;;;;;6277313;28;20079;-75
2022/08/28 14:09:34;;;;;;;4.97;2.20;;;;;;;;;;6267465;28;20710;-75
2022/08/28 14:12:36;;;;;;;6.53;2.63;;;;;;;;;;6275451;28;20075;-75
2022/08/28 14:15:38;;;;;;;4.60;2.47;;;;;;;;;;6276436;28;20218;-76
2022/08/28 14:18:40;;;;;;;4.55;2.03;;;;;;;;;;6273824;28;20128;-76
2022/08/28 14:21:41;;;;;;;5.47;2.20;;;;;;;;;;6275298;28;20052;-75
2022/08/28 14:24:45;;;;;;;6.50;2.30;;;;;;;;;;6269265;28;20384;-75
2022/08/28 14:27:50;;;;;;;3.38;2.25;;;;;;;;;;6260932;28;20494;-76
2022/08/28 14:30:53;;;;;;;6.75;2.13;;;;;;;;;;6268445;28;20481;-75
2022/08/28 14:33:58;;;;;;;4.47;2.10;;;;;;;;;;6265562;28;20049;-75
2022/08/28 14:37:00;;;;;;;3.88;1.80;;;;;;;;;;6262518;28;20063;-76
2022/08/28 14:40:04;;;;;;;3.88;1.85;;;;;;;;;;6267009;28;20041;-75
2022/08/28 14:43:11;;;;;;;5.22;2.22;;;;;;;;;;6261322;28;20136;-75
2022/08/28 14:46:17;;;;;;;3.55;1.98;;;;;;;;;;6260665;28;20048;-75
2022/08/28 14:49:20;;;;;;;4.45;1.60;;;;;;;;;;6261493;28;20041;-75
2022/08/28 14:52:22;;;;;;;3.30;1.50;;;;;;;;;;6262380;28;20060;-74
2022/08/28 14:55:25;;;;;;;3.58;1.70;;;;;;;;;;6263500;28;20099;-75
2022/08/28 14:58:26;;;;;;;2.85;1.60;;;;;;;;;;6256935;28;20048;-75
2022/08/28 15:01:35;;;;;;;4.38;1.70;;;;;;;;;;6271087;28;20057;-75
2022/08/28 15:04:41;;;;;;;4.63;1.70;;;;;;;;;;6275618;28;20045;-74
2022/08/28 15:07:44;;;;;;;2.75;1.40;;;;;;;;;;6268625;28;20130;-75
2022/08/28 15:10:47;;;;;;;2.03;1.52;;;;;;;;;;6261026;28;20117;-75
2022/08/28 15:13:51;;;;;;;4.97;1.77;;;;;;;;;;6270925;28;20033;-76
2022/08/28 15:16:52;;;;;;;2.92;1.52;;;;;;;;;;6256738;28;20137;-75
2022/08/28 15:19:54;;;;;;;2.95;1.65;;;;;;;;;;6267891;28;20169;-77
2022/08/28 15:22:56;;;;;;;3.83;1.85;;;;;;;;;;6271293;28;20721;-76
2022/08/28 15:25:58;;;;;;;4.15;1.70;;;;;;;;;;6281944;28;20127;-76
2022/08/28 15:29:04;;;;;;;4.30;1.70;;;;;;;;;;6270652;28;20139;-76
2022/08/28 15:32:06;;;;;;;4.05;1.58;;;;;;;;;;6272038;28;20082;-76
2022/08/28 15:35:08;;;;;;;3.63;1.83;;;;;;;;;;6276961;28;20043;-75
2022/08/28 15:38:10;;;;;;;3.92;1.50;;;;;;;;;;6268834;28;20040;-75
2022/08/28 15:41:23;;;;;;;3.63;1.75;;;;;;;;;;6259151;28;20060;-76
2022/08/28 15:44:26;;;;;;;3.53;1.48;;;;;;;;;;6284805;28;20044;-75
2022/08/28 15:47:29;;;;;;;3.10;1.63;;;;;;;;;;6268500;28;20193;-75
2022/08/28 15:50:31;;;;;;;4.30;1.70;;;;;;;;;;6269158;28;20041;-75
2022/08/28 15:53:33;;;;;;;4.22;1.90;;;;;;;;;;6279932;28;20045;-74
2022/08/28 15:56:35;;;;;;;3.03;1.60;;;;;;;;;;6275354;28;20119;-75
2022/08/28 15:59:36;;;;;;;2.72;1.70;;;;;;;;;;6271563;28;20512;-74
2022/08/28 16:02:51;;;;;;;3.30;1.48;;;;;;;;;;6273970;28;20040;-73
2022/08/28 16:05:52;;;;;;;3.05;1.50;;;;;;;;;;6271775;28;20040;-74
2022/08/28 16:08:54;;;;;;;3.40;1.45;;;;;;;;;;6272190;28;20537;-75
2022/08/28 16:11:56;;;;;;;3.67;1.60;;;;;;;;;;6279288;28;20113;-75
2022/08/28 16:14:58;;;;;;;5.20;1.50;;;;;;;;;;6282061;28;20144;-75
2022/08/28 16:18:00;;;;;;;3.92;1.38;;;;;;;;;;6275502;28;20068;-75
2022/08/28 16:21:03;;;;;;;3.00;1.60;;;;;;;;;;6276803;28;20044;-74
2022/08/28 16:24:06;;;;;;;4.15;1.80;;;;;;;;;;6274491;28;20076;-75
2022/08/28 16:27:07;;;;;;;2.80;1.40;;;;;;;;;;6278730;28;20067;-74
2022/08/28 16:30:16;;;;;;;2.00;1.38;;;;;;;;;;6283682;28;20066;-74
2022/08/28 16:33:20;;;;;;;4.38;1.50;;;;;;;;;;6279706;28;20178;-76
2022/08/28 16:36:24;;;;;;;3.10;1.42;;;;;;;;;;6276719;28;20052;-74
2022/08/28 16:39:25;;;;;;;2.80;1.60;;;;;;;;;;6271821;28;20052;-74
2022/08/28 16:42:27;;;;;;;3.78;1.60;;;;;;;;;;6280207;28;20122;-74
2022/08/28 16:45:33;;;;;;;4.05;1.50;;;;;;;;;;6273184;28;20049;-76
2022/08/28 16:48:35;;;;;;;3.08;1.52;;;;;;;;;;6276485;28;20072;-75
2022/08/28 16:51:37;;;;;;;2.90;1.40;;;;;;;;;;6274636;28;20041;-76
2022/08/28 16:54:39;;;;;;;;;;;;;;;;;;6275127;28;20484;-75
2022/08/28 16:57:48;;;;;;;2.90;1.25;;;;;;;;;;6275666;28;19924;-74
2022/08/28 17:00:50;;;;;;;3.20;1.37;;;;;;;;;;6278371;28;20094;-73
2022/08/28 17:03:55;;;;;;;5.30;1.50;;;;;;;;;;6275068;28;20052;-74
2022/08/28 17:06:56;;;;;;;3.77;1.47;;;;;;;;;;6277399;28;20563;-74
2022/08/28 17:09:59;;;;;;;3.17;1.63;;;;;;;;;;6276595;28;20037;-74
2022/08/28 17:13:00;;;;;;;4.05;1.30;;;;;;;;;;6279958;28;20056;-74
2022/08/28 17:16:03;;;;;;;5.00;1.90;;;;;;;;;;6277004;28;20044;-74
2022/08/28 17:19:05;;;;;;;2.25;1.27;;;;;;;;;;6276675;28;20119;-75
2022/08/28 17:25:28;;;;;;;5.22;1.40;;;;;;;;;;6266039;28;20126;-76
2022/08/28 17:28:29;;;;;;;2.70;1.10;;;;;;;;;;6251758;28;20044;-75
2022/08/28 17:31:32;;;;;;;;;;;;;;;;;;6267763;28;20131;-75
2022/08/28 17:34:34;;;;;;;2.47;1.38;;;;;;;;;;6273220;28;19996;-75
2022/08/28 17:37:37;;;;;;;3.22;1.40;;;;;;;;;;6277063;28;20048;-75
2022/08/28 17:40:39;;;;;;;;;;;;;;;;;;6276245;28;20131;-76
2022/08/28 17:43:41;;;;;;;3.65;1.35;;;;;;;;;;6276992;28;19966;-74
2022/08/28 17:46:42;;;;;;;5.40;1.60;;;;;;;;;;6276772;28;20137;-76
2022/08/28 17:49:44;;;;;;;4.43;1.10;;;;;;;;;;6274219;28;20052;-76
2022/08/28 17:52:46;;;;;;;4.70;1.65;;;;;;;;;;6277305;28;20554;-76
2022/08/28 17:55:49;;;;;;;4.30;1.60;;;;;;;;;;6277642;28;20194;-76
2022/08/28 17:58:51;;;;;;;2.23;1.00;;;;;;;;;;6267762;28;20045;-76
2022/08/28 18:01:54;;;;;;;4.75;1.48;;;;;;;;;;6263209;28;20159;-76
2022/08/28 18:04:55;;;;;;;3.03;1.30;;;;;;;;;;6273644;28;20036;-77
2022/08/28 18:07:58;;;;;;;4.90;1.40;;;;;;;;;;6282921;28;20048;-77
2022/08/28 18:11:00;;;;;;;3.83;1.20;;;;;;;;;;6275891;28;20044;-77
2022/08/28 18:14:02;;;;;;;4.72;1.38;;;;;;;;;;6291674;28;20514;-76
2022/08/28 18:17:04;;;;;;;2.47;1.25;;;;;;;;;;6277601;28;20044;-75
2022/08/28 18:20:09;;;;;;;2.67;1.02;;;;;;;;;;6276948;28;20059;-76
2022/08/28 18:23:10;;;;;;;2.90;1.38;;;;;;;;;;6279949;27;20055;-75
2022/08/28 18:26:12;;;;;;;5.30;1.40;;;;;;;;;;6277280;28;20040;-79
2022/08/28 18:29:14;;;;;;;4.13;1.38;;;;;;;;;;6278162;28;20095;-79
2022/08/28 18:32:16;;;;;;;2.83;1.17;;;;;;;;;;6282221;28;20134;-77
2022/08/28 18:35:18;;;;;;;2.75;1.20;;;;;;;;;;6283138;28;20111;-77
2022/08/28 18:38:34;;;;;;;3.67;1.40;;;;;;;;;;6281002;28;20112;-79
2022/08/28 18:41:37;;;;;;;4.00;1.27;;;;;;;;;;6277927;28;20041;-78
2022/08/28 18:44:45;;;;;;;1.83;1.00;;;;;;;;;;6280406;28;20064;-78
2022/08/28 18:47:47;;;;;;;4.10;1.10;;;;;;;;;;6280056;28;20218;-76
2022/08/28 18:50:49;;;;;;;2.47;1.20;;;;;;;;;;6275666;28;20053;-77
2022/08/28 18:53:51;;;;;;;3.30;1.60;;;;;;;;;;6266256;28;20044;-78
2022/08/28 18:56:54;;;;;;;2.83;1.20;;;;;;;;;;6276662;28;20049;-77